sensor_id;sensor_type;location;lat;lon;timestamp;P1;durP1;ratioP1;P2;durP2;ratioP2
32096;SDS011;18610;49.916;8.284;2024-01-16T00:02:05;20.70;;;4.25;;
32096;SDS011;18610;49.916;8.284;2024-01-16T00:04:33;9.95;;;3.75;;
32096;SDS011;18610;49.916;8.284;2024-01-16T00:07:02;17.85;;;4.72;;
32096;SDS011;18610;49.916;8.284;2024-01-16T00:09:28;12.27;;;4.60;;
32096;SDS011;18610;49.916;8.284;2024-01-16T00:11:56;13.32;;;4.35;;
32096;SDS011;18610;49.916;8.284;2024-01-16T00:14:22;13.02;;;4.50;;
32096;SDS011;18610;49.916;8.284;2024-01-16T00:16:49;16.67;;;5.00;;
32096;SDS011;18610;49.916;8.284;2024-01-16T00:19:17;17.75;;;5.30;;
32096;SDS011;18610;49.916;8.284;2024-01-16T00:21:44;10.07;;;4.25;;
32096;SDS011;18610;49.916;8.284;2024-01-16T00:24:12;13.25;;;3.95;;
32096;SDS011;18610;49.916;8.284;2024-01-16T00:26:38;16.83;;;4.45;;
32096;SDS011;18610;49.916;8.284;2024-01-16T00:29:05;14.25;;;4.65;;
32096;SDS011;18610;49.916;8.284;2024-01-16T00:31:32;12.82;;;4.40;;
32096;SDS011;18610;49.916;8.284;2024-01-16T00:33:59;15.52;;;4.32;;
32096;SDS011;18610;49.916;8.284;2024-01-16T00:36:26;10.32;;;3.92;;
32096;SDS011;18610;49.916;8.284;2024-01-16T00:38:53;15.85;;;4.00;;
32096;SDS011;18610;49.916;8.284;2024-01-16T00:41:20;18.23;;;5.43;;
32096;SDS011;18610;49.916;8.284;2024-01-16T00:43:46;11.75;;;4.25;;
32096;SDS011;18610;49.916;8.284;2024-01-16T00:46:13;16.30;;;4.40;;
32096;SDS011;18610;49.916;8.284;2024-01-16T00:48:40;12.55;;;4.30;;
32096;SDS011;18610;49.916;8.284;2024-01-16T00:51:06;12.00;;;6.07;;
32096;SDS011;18610;49.916;8.284;2024-01-16T00:53:34;19.98;;;5.35;;
32096;SDS011;18610;49.916;8.284;2024-01-16T00:56:06;14.50;;;4.63;;
32096;SDS011;18610;49.916;8.284;2024-01-16T00:58:32;12.55;;;4.47;;
32096;SDS011;18610;49.916;8.284;2024-01-16T01:00:59;15.15;;;4.20;;
32096;SDS011;18610;49.916;8.284;2024-01-16T01:03:26;12.90;;;6.53;;
32096;SDS011;18610;49.916;8.284;2024-01-16T01:05:52;16.02;;;4.65;;
32096;SDS011;18610;49.916;8.284;2024-01-16T01:08:19;11.70;;;4.93;;
32096;SDS011;18610;49.916;8.284;2024-01-16T01:10:47;17.35;;;5.45;;
32096;SDS011;18610;49.916;8.284;2024-01-16T01:13:14;19.58;;;5.22;;
32096;SDS011;18610;49.916;8.284;2024-01-16T01:15:41;22.08;;;5.22;;
32096;SDS011;18610;49.916;8.284;2024-01-16T01:18:07;16.10;;;5.20;;
32096;SDS011;18610;49.916;8.284;2024-01-16T01:20:34;10.23;;;5.10;;
32096;SDS011;18610;49.916;8.284;2024-01-16T01:23:01;13.70;;;4.35;;
32096;SDS011;18610;49.916;8.284;2024-01-16T01:25:27;10.60;;;5.57;;
32096;SDS011;18610;49.916;8.284;2024-01-16T01:27:55;13.70;;;6.40;;
32096;SDS011;18610;49.916;8.284;2024-01-16T01:30:22;19.80;;;5.57;;
32096;SDS011;18610;49.916;8.284;2024-01-16T01:32:49;17.23;;;5.45;;
32096;SDS011;18610;49.916;8.284;2024-01-16T01:35:16;10.48;;;5.70;;
32096;SDS011;18610;49.916;8.284;2024-01-16T01:37:44;13.23;;;5.00;;
32096;SDS011;18610;49.916;8.284;2024-01-16T01:40:10;16.63;;;5.78;;
32096;SDS011;18610;49.916;8.284;2024-01-16T01:42:37;16.52;;;6.85;;
32096;SDS011;18610;49.916;8.284;2024-01-16T01:45:08;13.65;;;5.55;;
32096;SDS011;18610;49.916;8.284;2024-01-16T01:47:35;11.82;;;4.90;;
32096;SDS011;18610;49.916;8.284;2024-01-16T01:50:02;19.77;;;8.00;;
32096;SDS011;18610;49.916;8.284;2024-01-16T01:52:30;14.25;;;4.93;;
32096;SDS011;18610;49.916;8.284;2024-01-16T01:54:58;16.15;;;5.40;;
32096;SDS011;18610;49.916;8.284;2024-01-16T01:57:25;13.98;;;5.53;;
32096;SDS011;18610;49.916;8.284;2024-01-16T01:59:52;18.02;;;5.82;;
32096;SDS011;18610;49.916;8.284;2024-01-16T02:02:20;16.02;;;5.30;;
32096;SDS011;18610;49.916;8.284;2024-01-16T02:04:47;24.80;;;6.18;;
32096;SDS011;18610;49.916;8.284;2024-01-16T02:07:14;18.05;;;6.30;;
32096;SDS011;18610;49.916;8.284;2024-01-16T02:09:41;12.95;;;4.07;;
32096;SDS011;18610;49.916;8.284;2024-01-16T02:12:08;10.90;;;5.18;;
32096;SDS011;18610;49.916;8.284;2024-01-16T02:14:34;19.00;;;5.60;;
32096;SDS011;18610;49.916;8.284;2024-01-16T02:17:01;10.55;;;5.13;;
32096;SDS011;18610;49.916;8.284;2024-01-16T02:19:29;14.65;;;4.68;;
32096;SDS011;18610;49.916;8.284;2024-01-16T02:21:57;17.02;;;5.53;;
32096;SDS011;18610;49.916;8.284;2024-01-16T02:24:27;14.40;;;5.00;;
32096;SDS011;18610;49.916;8.284;2024-01-16T02:26:53;13.90;;;5.07;;
32096;SDS011;18610;49.916;8.284;2024-01-16T02:29:20;16.30;;;5.50;;
32096;SDS011;18610;49.916;8.284;2024-01-16T02:31:47;12.32;;;5.40;;
32096;SDS011;18610;49.916;8.284;2024-01-16T02:34:14;15.93;;;5.38;;
32096;SDS011;18610;49.916;8.284;2024-01-16T02:36:40;17.65;;;5.85;;
32096;SDS011;18610;49.916;8.284;2024-01-16T02:39:07;19.48;;;5.47;;
32096;SDS011;18610;49.916;8.284;2024-01-16T02:41:36;16.10;;;6.03;;
32096;SDS011;18610;49.916;8.284;2024-01-16T02:44:02;15.35;;;6.03;;
32096;SDS011;18610;49.916;8.284;2024-01-16T02:46:29;16.38;;;4.40;;
32096;SDS011;18610;49.916;8.284;2024-01-16T02:48:57;16.30;;;5.45;;
32096;SDS011;18610;49.916;8.284;2024-01-16T02:51:24;23.88;;;5.97;;
32096;SDS011;18610;49.916;8.284;2024-01-16T02:53:50;18.00;;;5.50;;
32096;SDS011;18610;49.916;8.284;2024-01-16T02:56:17;16.02;;;5.18;;
32096;SDS011;18610;49.916;8.284;2024-01-16T02:58:45;19.75;;;4.65;;
32096;SDS011;18610;49.916;8.284;2024-01-16T03:01:12;15.68;;;6.03;;
32096;SDS011;18610;49.916;8.284;2024-01-16T03:03:40;19.50;;;5.65;;
32096;SDS011;18610;49.916;8.284;2024-01-16T03:06:07;13.43;;;5.68;;
32096;SDS011;18610;49.916;8.284;2024-01-16T03:08:33;25.85;;;5.60;;
32096;SDS011;18610;49.916;8.284;2024-01-16T03:11:00;12.82;;;4.97;;
32096;SDS011;18610;49.916;8.284;2024-01-16T03:13:27;25.90;;;5.70;;
32096;SDS011;18610;49.916;8.284;2024-01-16T03:15:55;16.70;;;4.95;;
32096;SDS011;18610;49.916;8.284;2024-01-16T03:18:22;23.83;;;6.32;;
32096;SDS011;18610;49.916;8.284;2024-01-16T03:20:49;14.77;;;5.55;;
32096;SDS011;18610;49.916;8.284;2024-01-16T03:23:15;8.48;;;4.75;;
32096;SDS011;18610;49.916;8.284;2024-01-16T03:25:42;14.38;;;5.32;;
32096;SDS011;18610;49.916;8.284;2024-01-16T03:28:09;12.52;;;4.95;;
32096;SDS011;18610;49.916;8.284;2024-01-16T03:30:35;14.85;;;5.35;;
32096;SDS011;18610;49.916;8.284;2024-01-16T03:33:04;15.27;;;5.57;;
32096;SDS011;18610;49.916;8.284;2024-01-16T03:35:31;20.45;;;6.03;;
32096;SDS011;18610;49.916;8.284;2024-01-16T03:37:57;17.55;;;5.40;;
32096;SDS011;18610;49.916;8.284;2024-01-16T03:40:24;17.20;;;5.90;;
32096;SDS011;18610;49.916;8.284;2024-01-16T03:42:51;29.60;;;6.28;;
32096;SDS011;18610;49.916;8.284;2024-01-16T03:45:18;15.90;;;5.32;;
32096;SDS011;18610;49.916;8.284;2024-01-16T03:47:44;18.00;;;5.20;;
32096;SDS011;18610;49.916;8.284;2024-01-16T03:50:12;11.48;;;4.68;;
32096;SDS011;18610;49.916;8.284;2024-01-16T03:52:39;19.63;;;6.25;;
32096;SDS011;18610;49.916;8.284;2024-01-16T03:55:06;17.00;;;5.22;;
32096;SDS011;18610;49.916;8.284;2024-01-16T03:57:33;15.50;;;5.18;;
32096;SDS011;18610;49.916;8.284;2024-01-16T03:59:59;16.05;;;4.85;;
32096;SDS011;18610;49.916;8.284;2024-01-16T04:02:26;17.20;;;5.60;;
32096;SDS011;18610;49.916;8.284;2024-01-16T04:04:53;13.27;;;5.15;;
32096;SDS011;18610;49.916;8.284;2024-01-16T04:07:22;11.57;;;5.32;;
32096;SDS011;18610;49.916;8.284;2024-01-16T04:09:48;16.98;;;5.47;;
32096;SDS011;18610;49.916;8.284;2024-01-16T04:12:15;16.35;;;5.32;;
32096;SDS011;18610;49.916;8.284;2024-01-16T04:14:42;14.65;;;5.47;;
32096;SDS011;18610;49.916;8.284;2024-01-16T04:17:08;27.95;;;5.30;;
32096;SDS011;18610;49.916;8.284;2024-01-16T04:19:38;17.40;;;6.30;;
32096;SDS011;18610;49.916;8.284;2024-01-16T04:22:04;13.10;;;4.65;;
32096;SDS011;18610;49.916;8.284;2024-01-16T04:24:33;15.07;;;5.47;;
32096;SDS011;18610;49.916;8.284;2024-01-16T04:26:59;31.73;;;5.78;;
32096;SDS011;18610;49.916;8.284;2024-01-16T04:29:26;10.57;;;4.60;;
32096;SDS011;18610;49.916;8.284;2024-01-16T04:31:52;13.70;;;5.00;;
32096;SDS011;18610;49.916;8.284;2024-01-16T04:34:19;13.80;;;4.47;;
32096;SDS011;18610;49.916;8.284;2024-01-16T04:36:46;11.88;;;4.95;;
32096;SDS011;18610;49.916;8.284;2024-01-16T04:39:13;13.48;;;5.47;;
32096;SDS011;18610;49.916;8.284;2024-01-16T04:41:41;11.85;;;5.00;;
32096;SDS011;18610;49.916;8.284;2024-01-16T04:44:07;24.08;;;6.30;;
32096;SDS011;18610;49.916;8.284;2024-01-16T04:46:34;13.45;;;4.95;;
32096;SDS011;18610;49.916;8.284;2024-01-16T04:49:01;21.27;;;5.25;;
32096;SDS011;18610;49.916;8.284;2024-01-16T04:51:27;34.10;;;6.22;;
32096;SDS011;18610;49.916;8.284;2024-01-16T04:53:54;17.58;;;6.28;;
32096;SDS011;18610;49.916;8.284;2024-01-16T04:56:21;14.18;;;4.95;;
32096;SDS011;18610;49.916;8.284;2024-01-16T04:58:49;14.52;;;5.72;;
32096;SDS011;18610;49.916;8.284;2024-01-16T05:01:15;17.45;;;6.32;;
32096;SDS011;18610;49.916;8.284;2024-01-16T05:03:41;16.40;;;5.22;;
32096;SDS011;18610;49.916;8.284;2024-01-16T05:06:11;14.40;;;5.25;;
32096;SDS011;18610;49.916;8.284;2024-01-16T05:08:39;18.58;;;5.70;;
32096;SDS011;18610;49.916;8.284;2024-01-16T05:11:06;25.52;;;6.18;;
32096;SDS011;18610;49.916;8.284;2024-01-16T05:13:33;16.75;;;6.03;;
32096;SDS011;18610;49.916;8.284;2024-01-16T05:16:01;20.67;;;6.18;;
32096;SDS011;18610;49.916;8.284;2024-01-16T05:18:27;20.48;;;6.03;;
32096;SDS011;18610;49.916;8.284;2024-01-16T05:20:54;13.20;;;5.88;;
32096;SDS011;18610;49.916;8.284;2024-01-16T05:23:22;21.23;;;6.85;;
32096;SDS011;18610;49.916;8.284;2024-01-16T05:25:48;21.77;;;5.60;;
32096;SDS011;18610;49.916;8.284;2024-01-16T05:28:15;16.13;;;5.43;;
32096;SDS011;18610;49.916;8.284;2024-01-16T05:30:41;12.75;;;5.55;;
32096;SDS011;18610;49.916;8.284;2024-01-16T05:33:09;16.75;;;5.15;;
32096;SDS011;18610;49.916;8.284;2024-01-16T05:35:36;22.08;;;8.18;;
32096;SDS011;18610;49.916;8.284;2024-01-16T05:38:02;20.63;;;6.20;;
32096;SDS011;18610;49.916;8.284;2024-01-16T05:40:30;17.50;;;5.53;;
32096;SDS011;18610;49.916;8.284;2024-01-16T05:42:56;14.35;;;5.50;;
32096;SDS011;18610;49.916;8.284;2024-01-16T05:45:23;16.15;;;5.97;;
32096;SDS011;18610;49.916;8.284;2024-01-16T05:47:49;18.25;;;6.13;;
32096;SDS011;18610;49.916;8.284;2024-01-16T05:50:17;14.07;;;6.00;;
32096;SDS011;18610;49.916;8.284;2024-01-16T05:52:44;15.60;;;4.97;;
32096;SDS011;18610;49.916;8.284;2024-01-16T05:55:11;12.75;;;5.55;;
32096;SDS011;18610;49.916;8.284;2024-01-16T05:57:38;31.23;;;8.55;;
32096;SDS011;18610;49.916;8.284;2024-01-16T06:00:05;16.10;;;6.20;;
32096;SDS011;18610;49.916;8.284;2024-01-16T06:02:32;19.17;;;5.85;;
32096;SDS011;18610;49.916;8.284;2024-01-16T06:04:59;15.20;;;6.28;;
32096;SDS011;18610;49.916;8.284;2024-01-16T06:07:27;15.15;;;6.82;;
32096;SDS011;18610;49.916;8.284;2024-01-16T06:09:53;18.95;;;6.25;;
32096;SDS011;18610;49.916;8.284;2024-01-16T06:12:20;14.40;;;6.13;;
32096;SDS011;18610;49.916;8.284;2024-01-16T06:14:47;18.35;;;5.95;;
32096;SDS011;18610;49.916;8.284;2024-01-16T06:17:13;16.77;;;5.78;;
32096;SDS011;18610;49.916;8.284;2024-01-16T06:19:40;22.35;;;5.30;;
32096;SDS011;18610;49.916;8.284;2024-01-16T06:22:06;12.18;;;4.93;;
32096;SDS011;18610;49.916;8.284;2024-01-16T06:24:35;13.40;;;5.75;;
32096;SDS011;18610;49.916;8.284;2024-01-16T06:27:03;13.38;;;5.53;;
32096;SDS011;18610;49.916;8.284;2024-01-16T06:29:30;14.05;;;6.28;;
32096;SDS011;18610;49.916;8.284;2024-01-16T06:31:57;16.48;;;6.35;;
32096;SDS011;18610;49.916;8.284;2024-01-16T06:34:24;22.02;;;6.00;;
32096;SDS011;18610;49.916;8.284;2024-01-16T06:36:50;10.25;;;6.30;;
32096;SDS011;18610;49.916;8.284;2024-01-16T06:39:17;18.90;;;6.32;;
32096;SDS011;18610;49.916;8.284;2024-01-16T06:41:45;16.10;;;6.65;;
32096;SDS011;18610;49.916;8.284;2024-01-16T06:44:11;14.38;;;6.88;;
32096;SDS011;18610;49.916;8.284;2024-01-16T06:46:38;17.60;;;6.10;;
32096;SDS011;18610;49.916;8.284;2024-01-16T06:49:05;16.00;;;7.28;;
32096;SDS011;18610;49.916;8.284;2024-01-16T06:51:31;14.10;;;6.47;;
32096;SDS011;18610;49.916;8.284;2024-01-16T06:53:58;28.55;;;8.13;;
32096;SDS011;18610;49.916;8.284;2024-01-16T06:56:25;24.65;;;8.15;;
32096;SDS011;18610;49.916;8.284;2024-01-16T06:58:53;25.83;;;8.70;;
32096;SDS011;18610;49.916;8.284;2024-01-16T07:01:19;20.30;;;9.52;;
32096;SDS011;18610;49.916;8.284;2024-01-16T07:03:46;23.52;;;9.18;;
32096;SDS011;18610;49.916;8.284;2024-01-16T07:06:13;22.75;;;10.48;;
32096;SDS011;18610;49.916;8.284;2024-01-16T07:08:39;15.38;;;6.68;;
32096;SDS011;18610;49.916;8.284;2024-01-16T07:11:06;12.68;;;6.80;;
32096;SDS011;18610;49.916;8.284;2024-01-16T07:13:37;19.30;;;6.30;;
32096;SDS011;18610;49.916;8.284;2024-01-16T07:16:05;15.07;;;6.82;;
32096;SDS011;18610;49.916;8.284;2024-01-16T07:18:32;17.42;;;6.95;;
32096;SDS011;18610;49.916;8.284;2024-01-16T07:20:59;16.73;;;5.97;;
32096;SDS011;18610;49.916;8.284;2024-01-16T07:23:28;16.40;;;6.10;;
32096;SDS011;18610;49.916;8.284;2024-01-16T07:25:55;15.18;;;5.32;;
32096;SDS011;18610;49.916;8.284;2024-01-16T07:28:21;12.35;;;5.57;;
32096;SDS011;18610;49.916;8.284;2024-01-16T07:30:48;22.30;;;6.10;;
32096;SDS011;18610;49.916;8.284;2024-01-16T07:33:16;22.13;;;6.30;;
32096;SDS011;18610;49.916;8.284;2024-01-16T07:35:42;14.75;;;5.30;;
32096;SDS011;18610;49.916;8.284;2024-01-16T07:38:12;14.30;;;5.75;;
32096;SDS011;18610;49.916;8.284;2024-01-16T07:40:41;25.85;;;7.10;;
32096;SDS011;18610;49.916;8.284;2024-01-16T07:43:08;13.85;;;5.97;;
32096;SDS011;18610;49.916;8.284;2024-01-16T07:45:34;19.38;;;6.15;;
32096;SDS011;18610;49.916;8.284;2024-01-16T07:48:01;12.20;;;5.93;;
32096;SDS011;18610;49.916;8.284;2024-01-16T07:50:31;20.85;;;8.18;;
32096;SDS011;18610;49.916;8.284;2024-01-16T07:52:57;17.80;;;7.00;;
32096;SDS011;18610;49.916;8.284;2024-01-16T07:55:24;21.90;;;6.45;;
32096;SDS011;18610;49.916;8.284;2024-01-16T07:57:51;26.08;;;11.68;;
32096;SDS011;18610;49.916;8.284;2024-01-16T08:00:20;31.85;;;13.27;;
32096;SDS011;18610;49.916;8.284;2024-01-16T08:02:47;42.85;;;19.30;;
32096;SDS011;18610;49.916;8.284;2024-01-16T08:05:13;61.15;;;27.00;;
32096;SDS011;18610;49.916;8.284;2024-01-16T08:07:43;91.93;;;43.25;;
32096;SDS011;18610;49.916;8.284;2024-01-16T08:10:10;40.92;;;19.73;;
32096;SDS011;18610;49.916;8.284;2024-01-16T08:12:36;22.80;;;9.60;;
32096;SDS011;18610;49.916;8.284;2024-01-16T08:15:03;30.38;;;11.65;;
32096;SDS011;18610;49.916;8.284;2024-01-16T08:17:32;21.25;;;8.98;;
32096;SDS011;18610;49.916;8.284;2024-01-16T08:19:59;24.52;;;7.18;;
32096;SDS011;18610;49.916;8.284;2024-01-16T08:22:25;15.80;;;6.03;;
32096;SDS011;18610;49.916;8.284;2024-01-16T08:24:53;14.88;;;6.10;;
32096;SDS011;18610;49.916;8.284;2024-01-16T08:27:20;22.95;;;6.72;;
32096;SDS011;18610;49.916;8.284;2024-01-16T08:29:50;19.27;;;6.50;;
32096;SDS011;18610;49.916;8.284;2024-01-16T08:32:16;20.08;;;7.78;;
32096;SDS011;18610;49.916;8.284;2024-01-16T08:34:43;34.80;;;15.00;;
32096;SDS011;18610;49.916;8.284;2024-01-16T08:37:09;30.20;;;13.10;;
32096;SDS011;18610;49.916;8.284;2024-01-16T08:39:36;109.10;;;39.58;;
32096;SDS011;18610;49.916;8.284;2024-01-16T08:42:04;143.20;;;48.58;;
32096;SDS011;18610;49.916;8.284;2024-01-16T08:44:31;120.53;;;40.22;;
32096;SDS011;18610;49.916;8.284;2024-01-16T08:46:58;140.63;;;49.30;;
32096;SDS011;18610;49.916;8.284;2024-01-16T08:49:27;42.00;;;18.30;;
32096;SDS011;18610;49.916;8.284;2024-01-16T08:51:53;156.07;;;51.88;;
32096;SDS011;18610;49.916;8.284;2024-01-16T08:54:20;178.02;;;56.00;;
32096;SDS011;18610;49.916;8.284;2024-01-16T08:56:47;93.07;;;29.48;;
32096;SDS011;18610;49.916;8.284;2024-01-16T08:59:15;80.40;;;27.52;;
32096;SDS011;18610;49.916;8.284;2024-01-16T09:01:42;34.30;;;10.40;;
32096;SDS011;18610;49.916;8.284;2024-01-16T09:04:09;19.92;;;7.45;;
32096;SDS011;18610;49.916;8.284;2024-01-16T09:06:35;32.70;;;7.47;;
32096;SDS011;18610;49.916;8.284;2024-01-16T09:09:02;19.15;;;7.18;;
32096;SDS011;18610;49.916;8.284;2024-01-16T09:11:30;21.73;;;8.60;;
32096;SDS011;18610;49.916;8.284;2024-01-16T09:13:57;23.80;;;7.85;;
32096;SDS011;18610;49.916;8.284;2024-01-16T09:16:25;23.17;;;7.82;;
32096;SDS011;18610;49.916;8.284;2024-01-16T09:18:51;22.10;;;8.07;;
32096;SDS011;18610;49.916;8.284;2024-01-16T09:21:18;20.67;;;7.95;;
32096;SDS011;18610;49.916;8.284;2024-01-16T09:23:44;23.77;;;8.13;;
32096;SDS011;18610;49.916;8.284;2024-01-16T09:26:11;21.75;;;7.25;;
32096;SDS011;18610;49.916;8.284;2024-01-16T09:28:38;22.30;;;8.15;;
32096;SDS011;18610;49.916;8.284;2024-01-16T09:31:05;16.67;;;6.90;;
32096;SDS011;18610;49.916;8.284;2024-01-16T09:33:36;21.30;;;7.90;;
32096;SDS011;18610;49.916;8.284;2024-01-16T09:36:04;26.35;;;8.57;;
32096;SDS011;18610;49.916;8.284;2024-01-16T09:38:30;20.25;;;8.82;;
32096;SDS011;18610;49.916;8.284;2024-01-16T09:40:57;27.50;;;8.10;;
32096;SDS011;18610;49.916;8.284;2024-01-16T09:43:25;26.25;;;7.32;;
32096;SDS011;18610;49.916;8.284;2024-01-16T09:45:53;15.95;;;7.78;;
32096;SDS011;18610;49.916;8.284;2024-01-16T09:48:21;28.75;;;9.30;;
32096;SDS011;18610;49.916;8.284;2024-01-16T09:50:50;16.23;;;8.02;;
32096;SDS011;18610;49.916;8.284;2024-01-16T09:53:16;26.20;;;7.78;;
32096;SDS011;18610;49.916;8.284;2024-01-16T09:55:45;27.65;;;9.55;;
32096;SDS011;18610;49.916;8.284;2024-01-16T09:58:14;23.35;;;7.60;;
32096;SDS011;18610;49.916;8.284;2024-01-16T10:00:42;26.17;;;8.25;;
32096;SDS011;18610;49.916;8.284;2024-01-16T10:03:10;18.52;;;7.03;;
32096;SDS011;18610;49.916;8.284;2024-01-16T10:05:38;22.52;;;6.22;;
32096;SDS011;18610;49.916;8.284;2024-01-16T10:08:08;24.13;;;7.38;;
32096;SDS011;18610;49.916;8.284;2024-01-16T10:10:34;21.92;;;6.60;;
32096;SDS011;18610;49.916;8.284;2024-01-16T10:13:01;23.23;;;7.47;;
32096;SDS011;18610;49.916;8.284;2024-01-16T10:15:29;16.15;;;6.68;;
32096;SDS011;18610;49.916;8.284;2024-01-16T10:17:57;23.75;;;7.45;;
32096;SDS011;18610;49.916;8.284;2024-01-16T10:20:34;20.88;;;7.00;;
32096;SDS011;18610;49.916;8.284;2024-01-16T10:23:01;15.32;;;6.53;;
32096;SDS011;18610;49.916;8.284;2024-01-16T10:25:30;21.30;;;7.22;;
32096;SDS011;18610;49.916;8.284;2024-01-16T10:28:04;20.33;;;6.50;;
32096;SDS011;18610;49.916;8.284;2024-01-16T10:30:33;16.33;;;6.03;;
32096;SDS011;18610;49.916;8.284;2024-01-16T10:33:11;16.60;;;6.30;;
32096;SDS011;18610;49.916;8.284;2024-01-16T10:35:39;18.45;;;5.95;;
32096;SDS011;18610;49.916;8.284;2024-01-16T10:38:06;24.70;;;6.53;;
32096;SDS011;18610;49.916;8.284;2024-01-16T10:40:34;19.15;;;5.40;;
32096;SDS011;18610;49.916;8.284;2024-01-16T10:43:01;12.32;;;5.97;;
32096;SDS011;18610;49.916;8.284;2024-01-16T10:45:29;20.90;;;5.70;;
32096;SDS011;18610;49.916;8.284;2024-01-16T10:48:03;16.17;;;5.50;;
32096;SDS011;18610;49.916;8.284;2024-01-16T10:50:30;32.45;;;6.90;;
32096;SDS011;18610;49.916;8.284;2024-01-16T10:52:59;19.23;;;6.60;;
32096;SDS011;18610;49.916;8.284;2024-01-16T10:55:29;19.85;;;5.97;;
32096;SDS011;18610;49.916;8.284;2024-01-16T10:57:58;23.13;;;8.32;;
32096;SDS011;18610;49.916;8.284;2024-01-16T11:00:27;16.38;;;6.65;;
32096;SDS011;18610;49.916;8.284;2024-01-16T11:02:58;15.63;;;5.57;;
32096;SDS011;18610;49.916;8.284;2024-01-16T11:05:27;18.25;;;6.28;;
32096;SDS011;18610;49.916;8.284;2024-01-16T11:07:56;18.13;;;6.40;;
32096;SDS011;18610;49.916;8.284;2024-01-16T11:10:27;17.50;;;6.05;;
32096;SDS011;18610;49.916;8.284;2024-01-16T11:12:54;24.25;;;6.90;;
32096;SDS011;18610;49.916;8.284;2024-01-16T11:15:25;20.10;;;6.73;;
32096;SDS011;18610;49.916;8.284;2024-01-16T11:17:54;24.92;;;6.75;;
32096;SDS011;18610;49.916;8.284;2024-01-16T11:20:21;15.55;;;6.07;;
32096;SDS011;18610;49.916;8.284;2024-01-16T11:22:51;17.55;;;6.30;;
32096;SDS011;18610;49.916;8.284;2024-01-16T11:25:30;20.63;;;6.55;;
32096;SDS011;18610;49.916;8.284;2024-01-16T11:28:02;13.48;;;6.55;;
32096;SDS011;18610;49.916;8.284;2024-01-16T11:30:34;18.33;;;7.32;;
32096;SDS011;18610;49.916;8.284;2024-01-16T11:33:01;18.77;;;6.25;;
32096;SDS011;18610;49.916;8.284;2024-01-16T11:35:33;20.45;;;6.20;;
32096;SDS011;18610;49.916;8.284;2024-01-16T11:38:05;11.73;;;4.88;;
32096;SDS011;18610;49.916;8.284;2024-01-16T11:40:34;20.80;;;6.15;;
32096;SDS011;18610;49.916;8.284;2024-01-16T11:46:04;18.70;;;7.43;;
32096;SDS011;18610;49.916;8.284;2024-01-16T11:48:32;12.63;;;4.85;;
32096;SDS011;18610;49.916;8.284;2024-01-16T11:50:59;18.27;;;5.03;;
32096;SDS011;18610;49.916;8.284;2024-01-16T11:53:35;16.52;;;4.45;;
32096;SDS011;18610;49.916;8.284;2024-01-16T11:56:11;12.98;;;3.95;;
32096;SDS011;18610;49.916;8.284;2024-01-16T11:58:57;16.02;;;4.18;;
32096;SDS011;18610;49.916;8.284;2024-01-16T12:01:37;12.65;;;4.00;;
32096;SDS011;18610;49.916;8.284;2024-01-16T12:04:08;22.23;;;4.20;;
32096;SDS011;18610;49.916;8.284;2024-01-16T12:06:35;17.58;;;4.03;;
32096;SDS011;18610;49.916;8.284;2024-01-16T12:09:12;10.60;;;3.80;;
32096;SDS011;18610;49.916;8.284;2024-01-16T12:11:39;17.83;;;4.43;;
32096;SDS011;18610;49.916;8.284;2024-01-16T12:14:09;9.55;;;3.28;;
32096;SDS011;18610;49.916;8.284;2024-01-16T12:16:36;15.57;;;3.97;;
32096;SDS011;18610;49.916;8.284;2024-01-16T12:19:06;11.65;;;3.53;;
32096;SDS011;18610;49.916;8.284;2024-01-16T12:21:33;13.48;;;3.80;;
32096;SDS011;18610;49.916;8.284;2024-01-16T12:24:01;19.15;;;3.83;;
32096;SDS011;18610;49.916;8.284;2024-01-16T12:26:28;21.52;;;6.53;;
32096;SDS011;18610;49.916;8.284;2024-01-16T12:28:56;19.60;;;4.13;;
32096;SDS011;18610;49.916;8.284;2024-01-16T12:31:24;13.27;;;4.43;;
32096;SDS011;18610;49.916;8.284;2024-01-16T12:33:51;31.00;;;10.80;;
32096;SDS011;18610;49.916;8.284;2024-01-16T12:36:18;16.40;;;5.00;;
32096;SDS011;18610;49.916;8.284;2024-01-16T12:38:45;18.20;;;6.10;;
32096;SDS011;18610;49.916;8.284;2024-01-16T12:41:19;17.83;;;5.35;;
32096;SDS011;18610;49.916;8.284;2024-01-16T12:43:48;12.60;;;4.95;;
32096;SDS011;18610;49.916;8.284;2024-01-16T12:46:15;16.48;;;5.20;;
32096;SDS011;18610;49.916;8.284;2024-01-16T12:48:45;16.02;;;5.43;;
32096;SDS011;18610;49.916;8.284;2024-01-16T12:51:19;18.90;;;5.07;;
32096;SDS011;18610;49.916;8.284;2024-01-16T12:53:47;23.23;;;5.57;;
32096;SDS011;18610;49.916;8.284;2024-01-16T12:56:17;16.65;;;6.35;;
32096;SDS011;18610;49.916;8.284;2024-01-16T12:58:45;27.58;;;5.55;;
32096;SDS011;18610;49.916;8.284;2024-01-16T13:01:21;17.30;;;5.57;;
32096;SDS011;18610;49.916;8.284;2024-01-16T13:03:50;17.52;;;6.47;;
32096;SDS011;18610;49.916;8.284;2024-01-16T13:06:17;15.82;;;5.45;;
32096;SDS011;18610;49.916;8.284;2024-01-16T13:08:45;16.15;;;5.47;;
32096;SDS011;18610;49.916;8.284;2024-01-16T13:11:12;21.50;;;6.53;;
32096;SDS011;18610;49.916;8.284;2024-01-16T13:13:40;19.77;;;7.35;;
32096;SDS011;18610;49.916;8.284;2024-01-16T13:16:07;21.40;;;6.18;;
32096;SDS011;18610;49.916;8.284;2024-01-16T13:18:34;14.00;;;6.20;;
32096;SDS011;18610;49.916;8.284;2024-01-16T13:21:02;20.23;;;6.20;;
32096;SDS011;18610;49.916;8.284;2024-01-16T13:23:29;12.18;;;5.35;;
32096;SDS011;18610;49.916;8.284;2024-01-16T13:25:56;11.73;;;4.50;;
32096;SDS011;18610;49.916;8.284;2024-01-16T13:28:24;17.45;;;5.60;;
32096;SDS011;18610;49.916;8.284;2024-01-16T13:30:51;25.88;;;6.78;;
32096;SDS011;18610;49.916;8.284;2024-01-16T13:33:18;20.85;;;5.85;;
32096;SDS011;18610;49.916;8.284;2024-01-16T13:35:45;18.42;;;5.32;;
32096;SDS011;18610;49.916;8.284;2024-01-16T13:38:14;20.73;;;6.40;;
32096;SDS011;18610;49.916;8.284;2024-01-16T13:40:42;19.05;;;6.05;;
32096;SDS011;18610;49.916;8.284;2024-01-16T13:43:08;22.17;;;5.47;;
32096;SDS011;18610;49.916;8.284;2024-01-16T13:45:36;18.95;;;6.75;;
32096;SDS011;18610;49.916;8.284;2024-01-16T13:48:04;18.50;;;6.05;;
32096;SDS011;18610;49.916;8.284;2024-01-16T13:50:32;24.80;;;6.75;;
32096;SDS011;18610;49.916;8.284;2024-01-16T13:52:59;20.42;;;5.70;;
32096;SDS011;18610;49.916;8.284;2024-01-16T13:55:28;22.88;;;7.20;;
32096;SDS011;18610;49.916;8.284;2024-01-16T13:57:55;27.63;;;5.40;;
32096;SDS011;18610;49.916;8.284;2024-01-16T14:00:23;14.77;;;5.63;;
32096;SDS011;18610;49.916;8.284;2024-01-16T14:02:49;24.10;;;8.05;;
32096;SDS011;18610;49.916;8.284;2024-01-16T14:05:17;12.00;;;6.22;;
32096;SDS011;18610;49.916;8.284;2024-01-16T14:07:45;14.95;;;6.30;;
32096;SDS011;18610;49.916;8.284;2024-01-16T14:10:13;16.38;;;5.90;;
32096;SDS011;18610;49.916;8.284;2024-01-16T14:12:41;13.55;;;5.68;;
32096;SDS011;18610;49.916;8.284;2024-01-16T14:15:10;20.13;;;6.40;;
32096;SDS011;18610;49.916;8.284;2024-01-16T14:17:43;20.65;;;5.85;;
32096;SDS011;18610;49.916;8.284;2024-01-16T14:20:11;21.35;;;6.07;;
32096;SDS011;18610;49.916;8.284;2024-01-16T14:22:38;14.68;;;5.95;;
32096;SDS011;18610;49.916;8.284;2024-01-16T14:25:06;21.10;;;7.30;;
32096;SDS011;18610;49.916;8.284;2024-01-16T14:27:36;20.38;;;6.15;;
32096;SDS011;18610;49.916;8.284;2024-01-16T14:30:06;17.58;;;6.22;;
32096;SDS011;18610;49.916;8.284;2024-01-16T14:32:35;21.63;;;6.93;;
32096;SDS011;18610;49.916;8.284;2024-01-16T14:35:03;17.33;;;5.82;;
32096;SDS011;18610;49.916;8.284;2024-01-16T14:37:30;16.40;;;6.18;;
32096;SDS011;18610;49.916;8.284;2024-01-16T14:39:57;15.70;;;5.45;;